createdAt,value
2018-12-03T00:04:30.950Z,76.45
2018-12-03T00:09:33.022Z,77.03
2018-12-03T00:14:35.151Z,77.22
2018-12-03T00:19:37.212Z,77.64
2018-12-03T00:24:39.372Z,78.73
2018-12-03T00:29:41.754Z,79.33
2018-12-03T00:34:44.327Z,80.15
2018-12-03T00:39:46.716Z,79.65
2018-12-03T00:44:48.762Z,79.12
2018-12-03T00:49:50.806Z,78.76
2018-12-03T00:54:53.367Z,78.16
2018-12-03T01:05:25.184Z,77.75
2018-12-03T01:10:28.732Z,77.95
2018-12-03T01:15:32.083Z,78.07
2018-12-03T01:20:35.434Z,79.06
2018-12-03T01:25:39.160Z,79.51
2018-12-03T01:30:42.902Z,79.96
2018-12-03T01:35:46.783Z,80.60
2018-12-03T01:40:50.368Z,81.08
2018-12-03T01:45:54.066Z,81.51
2018-12-03T01:50:57.428Z,81.98
2018-12-03T01:56:01.066Z,81.96
2018-12-03T02:01:04.730Z,81.49
2018-12-03T02:06:08.365Z,80.70
2018-12-03T02:11:11.759Z,80.24
2018-12-03T02:16:15.141Z,79.95
2018-12-03T02:21:18.820Z,79.72
2018-12-03T02:26:22.345Z,79.14
2018-12-03T02:31:25.763Z,78.76
2018-12-03T02:36:29.117Z,78.17
2018-12-03T02:41:32.713Z,77.79
2018-12-03T02:46:36.107Z,77.32
2018-12-03T02:51:39.473Z,77.07
2018-12-03T02:56:42.869Z,77.22
2018-12-03T03:01:46.435Z,77.70
2018-12-03T03:06:50.132Z,77.38
2018-12-03T03:11:53.764Z,77.74
2018-12-03T03:16:57.403Z,81.63
2018-12-03T03:22:00.798Z,82.50
2018-12-03T03:27:04.967Z,86.19
2018-12-03T03:32:08.443Z,87.86
2018-12-03T03:37:11.798Z,88.82
2018-12-03T03:53:05.981Z,89.86
2018-12-03T03:58:09.343Z,89.86
2018-12-03T04:03:12.809Z,90.58
2018-12-03T04:08:16.549Z,91.29
2018-12-03T04:13:20.120Z,91.81
2018-12-03T04:18:23.690Z,92.28
2018-12-03T04:23:27.112Z,92.31
2018-12-03T04:28:30.489Z,92.46
2018-12-03T04:33:33.939Z,92.41
2018-12-03T04:38:37.739Z,92.31
2018-12-03T04:43:41.175Z,91.67
2018-12-03T04:48:44.862Z,90.96
2018-12-03T04:53:48.852Z,90.14
2018-12-03T04:58:52.216Z,91.71
2018-12-03T05:03:55.689Z,92.02
2018-12-03T05:08:59.339Z,92.11
2018-12-03T05:14:02.719Z,91.83
2018-12-03T05:19:06.217Z,90.85
2018-12-03T05:24:09.908Z,90.54
2018-12-03T05:29:13.285Z,90.40
2018-12-03T05:34:16.705Z,89.94
2018-12-03T05:39:20.748Z,89.49
2018-12-03T05:44:24.147Z,89.30
2018-12-03T05:49:27.585Z,88.96
2018-12-03T05:54:31.159Z,88.96
2018-12-03T05:59:34.547Z,88.52
2018-12-03T06:04:37.914Z,88.20
2018-12-03T06:09:41.600Z,87.69
2018-12-03T06:14:44.984Z,87.20
2018-12-03T06:19:48.625Z,86.54
2018-12-03T06:24:52.389Z,85.58
2018-12-03T06:29:55.775Z,84.40
2018-12-03T06:34:59.356Z,84.19
2018-12-03T06:40:03.350Z,84.23
2018-12-03T06:45:08.762Z,83.59
2018-12-03T06:50:12.161Z,82.67
2018-12-03T06:55:15.790Z,82.97
2018-12-03T07:00:20.682Z,82.21
2018-12-03T07:05:24.068Z,82.33
2018-12-03T07:10:27.459Z,82.05
2018-12-03T07:15:32.923Z,82.58
2018-12-03T07:20:36.345Z,82.60
2018-12-03T07:25:39.700Z,82.71
2018-12-03T07:30:43.261Z,82.85
2018-12-03T07:35:46.654Z,83.12
2018-12-03T07:40:50.175Z,83.49
2018-12-03T07:45:53.544Z,82.74
2018-12-03T07:50:56.927Z,81.99
2018-12-03T07:56:01.174Z,81.63
2018-12-03T08:01:04.975Z,81.05
2018-12-03T08:06:08.356Z,80.41
2018-12-03T08:11:11.748Z,79.93
2018-12-03T08:16:15.982Z,80.18
2018-12-03T08:21:19.513Z,79.92
2018-12-03T08:26:23.544Z,80.20
2018-12-03T08:31:27.076Z,79.49
2018-12-03T08:36:30.464Z,79.06
2018-12-03T08:41:35.235Z,78.79
2018-12-03T08:46:38.941Z,78.45
2018-12-03T08:51:42.360Z,78.76
2018-12-03T08:56:46.183Z,78.58
2018-12-03T09:01:49.873Z,79.06
2018-12-03T09:06:53.745Z,79.35
2018-12-03T09:11:57.301Z,79.19
2018-12-03T09:17:02.645Z,78.96
2018-12-03T09:22:06.325Z,78.46
2018-12-03T09:27:14.678Z,77.58
2018-12-03T09:32:18.115Z,75.18
2018-12-03T09:37:26.496Z,74.52
2018-12-03T09:42:32.757Z,74.99
2018-12-03T09:47:39.067Z,74.16
2018-12-03T09:52:43.334Z,75.18
2018-12-03T09:57:57.011Z,74.15
2018-12-03T10:03:06.275Z,72.23
2018-12-03T10:08:09.631Z,69.94
2018-12-03T10:13:13.466Z,67.37
2018-12-03T10:18:16.873Z,67.22
2018-12-03T10:23:20.454Z,65.27
2018-12-03T10:28:24.531Z,64.72
2018-12-03T10:33:36.756Z,65.00
2018-12-03T10:38:42.121Z,64.17
2018-12-03T10:43:45.502Z,67.45
2018-12-03T10:48:49.641Z,67.16
2018-12-03T10:53:53.106Z,68.94
2018-12-03T10:58:57.696Z,68.65
2018-12-03T11:04:01.633Z,67.42
2018-12-03T11:09:07.965Z,67.37
2018-12-03T11:14:12.536Z,67.30
2018-12-03T11:19:16.180Z,67.92
2018-12-03T11:24:19.552Z,68.54
2018-12-03T11:29:23.001Z,68.34
2018-12-03T11:34:27.302Z,66.34
2018-12-03T11:39:53.992Z,65.30
2018-12-03T11:44:57.357Z,62.07
2018-12-03T11:50:00.736Z,63.17
2018-12-03T11:55:04.943Z,63.33
2018-12-03T12:00:13.491Z,64.97
2018-12-03T12:05:18.907Z,71.15
2018-12-03T12:10:22.277Z,74.57
2018-12-03T12:15:27.748Z,73.37
2018-12-03T12:20:31.117Z,73.13
2018-12-03T12:25:34.531Z,73.35
2018-12-03T12:30:37.922Z,72.44
2018-12-03T12:35:41.342Z,68.66
2018-12-03T12:40:45.265Z,67.67
2018-12-03T12:46:00.857Z,62.69
2018-12-03T12:51:04.418Z,62.71
2018-12-03T12:56:07.932Z,66.61
2018-12-03T13:01:11.316Z,65.56
2018-12-03T13:06:14.742Z,68.44
2018-12-03T13:11:18.136Z,68.50
2018-12-03T13:16:21.480Z,68.05
2018-12-03T13:21:24.964Z,68.16
2018-12-03T13:26:29.177Z,66.73
2018-12-03T13:31:32.590Z,66.29
2018-12-03T13:36:36.112Z,64.76
2018-12-03T13:41:39.490Z,64.28
2018-12-03T13:46:43.619Z,62.13
2018-12-03T13:51:47.051Z,64.23
2018-12-03T13:56:50.715Z,65.54
2018-12-03T14:01:54.114Z,65.46
2018-12-03T14:07:19.669Z,64.40
2018-12-03T14:12:39.196Z,64.94
2018-12-03T14:18:12.830Z,63.30
2018-12-03T14:23:20.095Z,63.68
2018-12-03T14:28:23.566Z,65.39
2018-12-03T14:33:27.000Z,65.78
2018-12-03T14:38:30.373Z,66.25
2018-12-03T14:43:33.769Z,66.79
2018-12-03T14:48:37.121Z,67.31
2018-12-03T14:53:40.587Z,68.93
2018-12-03T14:58:51.689Z,71.41
2018-12-03T15:03:55.065Z,71.95
2018-12-03T15:08:58.468Z,72.73
2018-12-03T15:14:01.844Z,73.31
2018-12-03T15:19:30.473Z,73.50
2018-12-03T15:24:34.106Z,73.91
2018-12-03T15:29:38.106Z,75.08
2018-12-03T15:34:41.504Z,75.04
2018-12-03T15:39:44.868Z,74.97
2018-12-03T15:44:48.548Z,75.56
2018-12-03T15:49:51.914Z,75.91
2018-12-03T15:54:55.442Z,76.25
2018-12-03T15:59:58.808Z,75.61
2018-12-03T16:05:02.226Z,75.76
2018-12-03T16:10:10.130Z,76.69
2018-12-03T16:15:13.516Z,77.40
2018-12-03T16:20:17.189Z,77.63
2018-12-03T16:25:20.776Z,77.90
2018-12-03T16:30:25.126Z,77.84
2018-12-03T16:35:28.727Z,77.58
2018-12-03T16:40:33.218Z,77.55
2018-12-03T16:45:36.730Z,77.92
2018-12-03T16:50:40.212Z,77.65
2018-12-03T16:55:43.800Z,77.19
2018-12-03T17:00:47.447Z,77.23
2018-12-03T17:05:50.828Z,78.32
2018-12-03T17:10:54.758Z,78.45
2018-12-03T17:15:58.124Z,78.46
2018-12-03T17:21:12.147Z,77.50
2018-12-03T17:26:15.620Z,76.97
2018-12-03T17:31:19.005Z,75.86
2018-12-03T17:36:22.648Z,74.85
2018-12-03T17:41:26.181Z,74.79
2018-12-03T17:46:29.544Z,75.00
2018-12-03T17:51:32.923Z,75.45
2018-12-03T17:56:36.513Z,76.52
2018-12-03T18:01:40.546Z,77.68
2018-12-03T18:06:45.019Z,78.14
2018-12-03T18:11:48.897Z,77.98
2018-12-03T18:16:52.377Z,78.38
2018-12-03T18:21:55.753Z,77.96
2018-12-03T18:26:59.335Z,77.27
2018-12-03T18:32:02.694Z,75.14
2018-12-03T18:37:07.352Z,74.81
2018-12-03T18:42:11.033Z,75.12
2018-12-03T18:47:14.421Z,74.97
2018-12-03T18:52:19.284Z,75.29
2018-12-03T18:57:22.883Z,75.45
2018-12-03T19:02:26.255Z,75.77
2018-12-03T19:07:29.739Z,75.60
2018-12-03T19:12:33.123Z,76.67
2018-12-03T19:17:36.505Z,76.73
2018-12-03T19:22:39.868Z,76.89
2018-12-03T19:27:43.265Z,77.57
2018-12-03T19:32:46.622Z,78.15
2018-12-03T19:37:58.173Z,77.63
2018-12-03T19:43:01.567Z,77.49
2018-12-03T19:48:05.007Z,76.17
2018-12-03T19:53:08.371Z,75.90
2018-12-03T19:58:15.234Z,75.95
2018-12-03T20:03:18.594Z,76.26
2018-12-03T20:08:22.257Z,76.44
2018-12-03T20:13:25.672Z,77.51
2018-12-03T20:18:29.137Z,78.14
2018-12-03T20:23:38.610Z,79.38
2018-12-03T20:29:13.299Z,79.30
2018-12-03T20:34:32.484Z,78.98
2018-12-03T20:39:48.442Z,78.28
2018-12-03T20:45:36.274Z,77.98
2018-12-03T20:51:13.580Z,77.76
2018-12-03T20:56:17.029Z,78.19
2018-12-03T21:01:20.525Z,78.33
2018-12-03T21:06:23.912Z,77.92
2018-12-03T21:11:27.498Z,77.91
2018-12-03T21:16:30.873Z,77.46
2018-12-03T21:21:34.516Z,76.39
2018-12-03T21:26:37.934Z,76.44
2018-12-03T21:31:41.996Z,76.47
2018-12-03T21:36:45.673Z,76.13
2018-12-03T21:41:49.100Z,76.54
2018-12-03T21:46:52.484Z,76.74
2018-12-03T21:51:55.835Z,76.80
2018-12-03T21:56:59.243Z,76.66
2018-12-03T22:02:03.107Z,76.75
2018-12-03T22:07:07.524Z,77.48
2018-12-03T22:12:10.884Z,77.38
2018-12-03T22:17:14.266Z,78.10
2018-12-03T22:22:17.626Z,78.29
2018-12-03T22:27:21.049Z,77.76
2018-12-03T22:32:24.980Z,77.53
2018-12-03T22:37:28.346Z,77.69
2018-12-03T22:42:31.726Z,77.78
2018-12-03T22:47:35.100Z,77.92
2018-12-03T22:52:38.512Z,77.76
2018-12-03T22:57:41.915Z,77.85
2018-12-03T23:02:45.653Z,78.18
2018-12-03T23:07:49.149Z,78.25
2018-12-03T23:12:52.512Z,79.17
2018-12-03T23:17:55.892Z,79.31
2018-12-03T23:22:59.282Z,77.57
2018-12-03T23:28:02.695Z,77.12
2018-12-03T23:33:06.832Z,77.54
2018-12-03T23:38:10.268Z,77.28
2018-12-03T23:43:22.733Z,77.11
2018-12-03T23:48:26.106Z,76.84
2018-12-03T23:53:29.503Z,77.21
2018-12-03T23:58:32.937Z,77.39
